createdAt,value
2019-03-17T21:52:11.982Z,56.70
2019-03-17T21:54:44.192Z,57.00
2019-03-17T21:57:14.967Z,56.90
2019-03-17T21:59:47.615Z,56.70
2019-03-17T22:02:30.520Z,56.80
2019-03-17T22:05:11.227Z,56.90
2019-03-17T22:07:56.952Z,56.90
2019-03-17T22:10:37.298Z,56.90
2019-03-17T22:13:15.386Z,57.00
2019-03-17T22:15:47.087Z,57.10
2019-03-17T22:18:18.759Z,57.10
2019-03-17T22:20:50.645Z,57.10
2019-03-17T22:23:21.833Z,57.50
2019-03-17T22:25:52.568Z,57.80
2019-03-17T22:28:26.045Z,57.70
2019-03-17T22:30:57.584Z,57.80
2019-03-17T22:33:28.284Z,57.90
2019-03-17T22:35:59.249Z,58.00
2019-03-17T22:38:29.973Z,58.10
2019-03-17T22:41:01.556Z,58.20
2019-03-17T22:43:32.242Z,58.20
2019-03-17T22:46:02.882Z,58.30
2019-03-17T22:48:33.516Z,58.30
2019-03-17T22:51:04.077Z,58.10
2019-03-17T22:53:34.802Z,58.20
2019-03-17T22:56:05.434Z,58.20
2019-03-17T22:58:36.070Z,58.10
2019-03-17T23:01:08.021Z,58.30
2019-03-17T23:03:38.683Z,58.30
2019-03-17T23:06:09.326Z,58.20
2019-03-17T23:08:39.959Z,58.00
2019-03-17T23:11:11.558Z,58.00
2019-03-17T23:13:42.199Z,57.90
2019-03-17T23:16:12.747Z,58.00
2019-03-17T23:18:44.194Z,57.80
2019-03-17T23:21:15.716Z,57.70
2019-03-17T23:23:46.245Z,57.50
2019-03-17T23:26:17.048Z,57.70
2019-03-17T23:28:47.855Z,57.80
2019-03-17T23:31:19.637Z,57.90
2019-03-17T23:33:50.459Z,57.80
2019-03-17T23:36:20.975Z,57.60
2019-03-17T23:38:51.515Z,57.50
2019-03-17T23:41:23.220Z,57.50
2019-03-17T23:43:53.785Z,57.70
2019-03-17T23:46:24.420Z,57.50
2019-03-17T23:48:55.048Z,57.60
2019-03-17T23:51:26.702Z,57.90
2019-03-17T23:53:57.323Z,58.10
2019-03-17T23:56:27.919Z,58.10
2019-03-17T23:58:58.541Z,58.20
